Time;durP1;ratioP1;P1;durP2;ratioP2;P2;SDS_P1;SDS_P2;PMS_P1;PMS_P2;Temp;Humidity;BMP_temperature;BMP_pressure;BME280_temperature;BME280_humidity;BME280_pressure;Samples;Min_cycle;Max_cycle;Signal;HPM_P1;HPM_P2
2021/08/09 00:02:11;;;;;;;2.47;1.50;;;;;;;;;;5054762;28;20913;-81
2021/08/09 00:04:39;;;;;;;2.17;1.37;;;;;;;;;;5054680;28;20467;-79
2021/08/09 00:10:09;;;;;;;1.50;1.10;;;;;;;;;;5054530;28;20418;-79
2021/08/09 00:12:35;;;;;;;1.77;1.37;;;;;;;;;;5054429;28;20501;-84
2021/08/09 00:15:01;;;;;;;2.43;1.43;;;;;;;;;;5054477;28;20431;-80
2021/08/09 00:17:27;;;;;;;1.97;1.63;;;;;;;;;;5053343;28;20423;-79
2021/08/09 00:19:53;;;;;;;1.97;1.47;;;;;;;;;;5054209;28;20816;-83
2021/08/09 00:25:22;;;;;;;1.50;1.10;;;;;;;;;;5054091;28;20470;-78
2021/08/09 00:27:48;;;;;;;3.63;1.63;;;;;;;;;;5054208;28;20964;-80
2021/08/09 00:30:14;;;;;;;1.90;1.23;;;;;;;;;;5054188;28;20419;-83
2021/08/09 00:32:40;;;;;;;2.53;1.27;;;;;;;;;;5054130;28;20510;-82
2021/08/09 00:35:07;;;;;;;6.60;1.40;;;;;;;;;;5054497;28;20462;-79
2021/08/09 00:40:37;;;;;;;2.30;1.27;;;;;;;;;;5054128;28;20425;-79
2021/08/09 00:43:03;;;;;;;2.20;1.57;;;;;;;;;;5055102;28;20435;-74
2021/08/09 00:45:29;;;;;;;2.20;1.07;;;;;;;;;;5052833;28;20470;-81
2021/08/09 00:47:55;;;;;;;2.30;1.40;;;;;;;;;;5053751;28;20407;-80
2021/08/09 00:50:21;;;;;;;2.33;1.27;;;;;;;;;;5053835;28;20415;-77
2021/08/09 00:55:52;;;;;;;2.40;1.27;;;;;;;;;;5053664;28;20830;-83
2021/08/09 00:58:18;;;;;;;3.20;1.40;;;;;;;;;;5053689;28;20714;-82
2021/08/09 01:00:44;;;;;;;1.90;1.00;;;;;;;;;;5052525;28;20458;-79
2021/08/09 01:03:10;;;;;;;2.20;1.33;;;;;;;;;;5053851;28;20455;-83
2021/08/09 01:05:36;;;;;;;3.07;1.60;;;;;;;;;;5053423;28;20497;-80
2021/08/09 01:11:18;;;;;;;4.10;1.37;;;;;;;;;;5053823;28;20406;-79
2021/08/09 01:13:50;;;;;;;1.90;1.20;;;;;;;;;;5053961;28;20429;-81
2021/08/09 01:16:16;;;;;;;6.90;1.57;;;;;;;;;;5054136;28;20479;-80
2021/08/09 01:18:42;;;;;;;2.00;1.10;;;;;;;;;;5053707;28;20430;-81
2021/08/09 01:21:10;;;;;;;2.13;1.37;;;;;;;;;;5053185;28;20415;-80
2021/08/09 01:23:45;;;;;;;1.30;0.90;;;;;;;;;;5053015;28;20909;-78
2021/08/09 01:26:24;;;;;;;2.20;1.03;;;;;;;;;;5052087;28;20426;-76
2021/08/09 01:28:51;;;;;;;1.60;1.50;;;;;;;;;;5052952;28;20418;-79
2021/08/09 01:31:17;;;;;;;2.53;1.70;;;;;;;;;;5053116;28;20451;-85
2021/08/09 01:33:44;;;;;;;3.90;2.30;;;;;;;;;;5053175;28;20410;-84
2021/08/09 01:36:10;;;;;;;5.67;2.30;;;;;;;;;;5051447;28;20550;-82
2021/08/09 01:38:37;;;;;;;3.70;2.00;;;;;;;;;;5053147;28;20794;-84
2021/08/09 01:41:03;;;;;;;2.90;1.70;;;;;;;;;;5053081;28;20422;-83
2021/08/09 01:43:30;;;;;;;2.50;2.30;;;;;;;;;;5053002;28;20414;-84
2021/08/09 01:45:56;;;;;;;3.77;1.80;;;;;;;;;;5053073;28;20426;-84
2021/08/09 01:48:23;;;;;;;2.30;2.03;;;;;;;;;;5052079;28;20430;-85
2021/08/09 01:50:49;;;;;;;1.70;1.60;;;;;;;;;;5052926;28;20423;-83
2021/08/09 01:56:19;;;;;;;5.07;2.10;;;;;;;;;;5052726;28;20421;-84
2021/08/09 01:58:45;;;;;;;3.33;1.30;;;;;;;;;;5052551;28;20872;-84
2021/08/09 02:01:11;;;;;;;2.00;1.80;;;;;;;;;;5052359;28;20410;-80
2021/08/09 02:03:37;;;;;;;3.53;1.70;;;;;;;;;;5052357;28;20827;-83
2021/08/09 02:06:03;;;;;;;2.10;1.90;;;;;;;;;;5052473;28;20419;-83
2021/08/09 02:11:46;;;;;;;3.90;1.93;;;;;;;;;;5052133;28;20430;-84
2021/08/09 02:14:13;;;;;;;2.60;1.70;;;;;;;;;;5052305;28;20502;-83
2021/08/09 02:16:42;;;;;;;2.33;1.60;;;;;;;;;;5052351;28;20769;-84
2021/08/09 02:19:21;;;;;;;1.63;1.50;;;;;;;;;;5052163;28;20427;-84
2021/08/09 02:22:00;;;;;;;2.80;1.60;;;;;;;;;;5052501;28;20425;-78
2021/08/09 02:24:31;;;;;;;3.03;1.50;;;;;;;;;;5052097;28;20674;-84
2021/08/09 02:27:05;;;;;;;5.70;2.00;;;;;;;;;;5052039;28;20406;-83
2021/08/09 02:29:33;;;;;;;2.63;1.53;;;;;;;;;;5052105;28;20400;-84
2021/08/09 02:31:59;;;;;;;1.50;1.40;;;;;;;;;;5052207;28;20766;-83
2021/08/09 02:34:26;;;;;;;2.40;1.60;;;;;;;;;;5051929;28;20463;-84
2021/08/09 02:36:52;;;;;;;2.50;1.27;;;;;;;;;;5052201;28;20415;-84
2021/08/09 02:39:19;;;;;;;3.20;1.90;;;;;;;;;;5052104;28;20419;-84
2021/08/09 02:41:45;;;;;;;2.30;1.27;;;;;;;;;;5052410;28;20417;-84
2021/08/09 02:44:12;;;;;;;1.77;1.50;;;;;;;;;;5052120;28;20797;-85
2021/08/09 02:46:39;;;;;;;3.17;1.70;;;;;;;;;;5052308;28;20502;-83
2021/08/09 02:49:05;;;;;;;6.40;1.80;;;;;;;;;;5052728;28;20455;-83
2021/08/09 02:51:33;;;;;;;3.00;1.80;;;;;;;;;;5052400;28;20892;-84
2021/08/09 02:57:03;;;;;;;1.57;1.47;;;;;;;;;;5052052;28;20413;-84
2021/08/09 02:59:29;;;;;;;2.07;1.87;;;;;;;;;;5051915;28;20415;-83
2021/08/09 03:01:55;;;;;;;1.93;1.30;;;;;;;;;;5051886;28;20418;-85
2021/08/09 03:04:22;;;;;;;5.87;2.30;;;;;;;;;;5051951;28;20459;-84
2021/08/09 03:06:49;;;;;;;3.47;1.80;;;;;;;;;;5051842;28;20481;-82
2021/08/09 03:09:16;;;;;;;5.70;2.00;;;;;;;;;;5052135;28;20442;-85
2021/08/09 03:11:42;;;;;;;4.30;1.70;;;;;;;;;;5051743;28;20502;-84
2021/08/09 03:14:20;;;;;;;1.80;1.70;;;;;;;;;;5051894;28;20453;-82
2021/08/09 03:16:47;;;;;;;2.40;1.83;;;;;;;;;;5051957;28;20402;-85
2021/08/09 03:19:13;;;;;;;5.67;1.97;;;;;;;;;;5052135;28;20414;-85
2021/08/09 03:21:39;;;;;;;2.87;1.27;;;;;;;;;;5050567;28;20431;-84
2021/08/09 03:27:08;;;;;;;2.53;1.70;;;;;;;;;;5055652;28;20987;-81
2021/08/09 03:29:35;;;;;;;2.00;1.80;;;;;;;;;;5055566;28;20411;-74
2021/08/09 03:32:01;;;;;;;8.63;2.50;;;;;;;;;;5055799;28;20399;-85
2021/08/09 03:34:27;;;;;;;2.17;1.70;;;;;;;;;;5055183;28;20403;-84
2021/08/09 03:36:53;;;;;;;3.97;1.53;;;;;;;;;;5055439;28;20414;-77
2021/08/09 03:42:23;;;;;;;6.90;2.90;;;;;;;;;;5055208;28;20780;-81
2021/08/09 03:44:49;;;;;;;5.23;2.30;;;;;;;;;;5055243;28;21039;-83
2021/08/09 03:47:15;;;;;;;5.33;2.73;;;;;;;;;;5055335;28;20431;-83
2021/08/09 03:49:41;;;;;;;3.03;1.93;;;;;;;;;;5055228;28;20438;-82
2021/08/09 03:52:07;;;;;;;4.90;2.20;;;;;;;;;;5055033;28;20430;-84
2021/08/09 03:57:37;;;;;;;5.20;2.90;;;;;;;;;;5054196;28;20407;-84
2021/08/09 04:00:04;;;;;;;7.53;2.47;;;;;;;;;;5055523;28;20422;-84
2021/08/09 04:02:31;;;;;;;5.17;2.67;;;;;;;;;;5054873;28;20411;-84
2021/08/09 04:04:58;;;;;;;5.73;2.67;;;;;;;;;;5055012;28;20588;-82
2021/08/09 04:07:25;;;;;;;10.43;3.03;;;;;;;;;;5054857;28;20419;-83
2021/08/09 04:09:51;;;;;;;6.47;3.00;;;;;;;;;;5054629;28;20903;-85
2021/08/09 04:12:17;;;;;;;4.10;2.43;;;;;;;;;;5054693;28;20407;-85
2021/08/09 04:14:43;;;;;;;3.00;2.53;;;;;;;;;;5054965;28;20465;-84
2021/08/09 04:17:09;;;;;;;2.20;2.00;;;;;;;;;;5054944;28;20411;-83
2021/08/09 04:19:35;;;;;;;2.33;2.13;;;;;;;;;;5054441;28;20430;-84
2021/08/09 04:22:00;;;;;;;2.93;2.00;;;;;;;;;;5054902;28;20400;-81
2021/08/09 04:27:30;;;;;;;3.00;2.03;;;;;;;;;;5054307;28;20776;-82
2021/08/09 04:29:56;;;;;;;2.07;1.97;;;;;;;;;;5054547;28;20403;-78
2021/08/09 04:32:22;;;;;;;2.40;1.80;;;;;;;;;;5054308;28;20505;-85
2021/08/09 04:34:50;;;;;;;4.50;2.17;;;;;;;;;;5054193;28;20482;-84
2021/08/09 04:37:16;;;;;;;2.40;1.90;;;;;;;;;;5054306;28;20415;-78
2021/08/09 04:42:46;;;;;;;3.63;1.83;;;;;;;;;;5054130;28;20415;-82
2021/08/09 04:45:12;;;;;;;3.07;2.37;;;;;;;;;;5054147;28;20466;-82
2021/08/09 04:47:38;;;;;;;2.40;1.73;;;;;;;;;;5054021;28;20797;-82
2021/08/09 04:50:04;;;;;;;4.93;1.73;;;;;;;;;;5054726;28;20450;-83
2021/08/09 04:52:30;;;;;;;5.17;2.37;;;;;;;;;;5057244;28;20415;-78
2021/08/09 04:58:00;;;;;;;2.43;2.23;;;;;;;;;;5053938;28;20472;-83
2021/08/09 05:00:26;;;;;;;3.20;2.23;;;;;;;;;;5055060;28;20403;-83
2021/08/09 05:02:52;;;;;;;4.67;2.20;;;;;;;;;;5053711;28;20476;-83
2021/08/09 05:05:18;;;;;;;2.90;1.93;;;;;;;;;;5053735;28;20501;-85
2021/08/09 05:07:44;;;;;;;2.80;1.70;;;;;;;;;;5053359;28;20461;-84
2021/08/09 05:13:13;;;;;;;4.70;2.43;;;;;;;;;;5053321;28;20413;-82
2021/08/09 05:15:40;;;;;;;1.80;1.70;;;;;;;;;;5053500;28;20388;-84
2021/08/09 05:18:06;;;;;;;4.37;1.83;;;;;;;;;;5053371;28;20403;-84
2021/08/09 05:20:32;;;;;;;3.37;2.00;;;;;;;;;;5053190;28;20468;-83
2021/08/09 05:22:58;;;;;;;3.30;2.23;;;;;;;;;;5053065;28;20411;-81
2021/08/09 05:28:30;;;;;;;2.70;2.30;;;;;;;;;;5052970;28;20480;-80
2021/08/09 05:30:56;;;;;;;6.00;4.10;;;;;;;;;;5053029;28;20841;-82
2021/08/09 05:33:22;;;;;;;6.20;3.43;;;;;;;;;;5052905;28;20433;-83
2021/08/09 05:35:48;;;;;;;3.50;2.63;;;;;;;;;;5052777;28;20577;-83
2021/08/09 05:44:02;;;;;;;3.20;2.20;;;;;;;;;;5052481;28;20461;-85
2021/08/09 05:46:28;;;;;;;8.70;2.27;;;;;;;;;;5052154;28;20781;-81
2021/08/09 05:48:54;;;;;;;2.50;1.90;;;;;;;;;;5052628;28;20411;-83
2021/08/09 05:51:20;;;;;;;2.37;1.50;;;;;;;;;;5052638;28;20786;-74
2021/08/09 05:53:46;;;;;;;4.50;1.53;;;;;;;;;;5052519;28;20411;-80
2021/08/09 05:56:12;;;;;;;4.70;2.00;;;;;;;;;;5052498;28;20426;-84
2021/08/09 05:58:38;;;;;;;1.63;1.13;;;;;;;;;;5052476;28;20770;-75
2021/08/09 06:01:04;;;;;;;5.70;1.60;;;;;;;;;;5049850;28;20510;-83
2021/08/09 06:03:30;;;;;;;1.60;1.10;;;;;;;;;;5052584;28;20461;-84
2021/08/09 06:05:57;;;;;;;3.63;1.87;;;;;;;;;;5052779;28;20466;-84
2021/08/09 06:08:23;;;;;;;4.57;1.77;;;;;;;;;;5051563;28;20913;-83
2021/08/09 06:13:53;;;;;;;4.30;1.30;;;;;;;;;;5052451;28;20418;-84
2021/08/09 06:16:19;;;;;;;1.80;1.43;;;;;;;;;;5052322;28;20402;-72
2021/08/09 06:18:45;;;;;;;2.93;1.43;;;;;;;;;;5052351;28;20426;-72
2021/08/09 06:21:11;;;;;;;2.63;1.40;;;;;;;;;;5052102;28;20403;-73
2021/08/09 06:23:38;;;;;;;1.57;1.47;;;;;;;;;;5052042;28;20845;-72
2021/08/09 06:29:07;;;;;;;2.80;1.43;;;;;;;;;;5052075;28;20410;-72
2021/08/09 06:31:33;;;;;;;1.63;1.33;;;;;;;;;;5051979;28;20761;-71
2021/08/09 06:34:02;;;;;;;2.03;1.33;;;;;;;;;;5051875;28;20419;-71
2021/08/09 06:36:28;;;;;;;1.53;1.20;;;;;;;;;;5051812;28;20470;-73
2021/08/09 06:38:54;;;;;;;1.73;1.13;;;;;;;;;;5052113;28;20426;-72
2021/08/09 06:44:23;;;;;;;6.27;1.43;;;;;;;;;;5051801;28;20469;-72
2021/08/09 06:46:49;;;;;;;2.70;1.60;;;;;;;;;;5051902;28;20484;-72
2021/08/09 06:49:16;;;;;;;1.43;1.33;;;;;;;;;;5051779;28;20415;-72
2021/08/09 06:51:42;;;;;;;2.37;2.10;;;;;;;;;;5051127;28;20493;-72
2021/08/09 06:54:08;;;;;;;2.80;1.40;;;;;;;;;;5051447;28;20840;-70
2021/08/09 06:59:37;;;;;;;2.90;1.00;;;;;;;;;;5053322;28;20406;-72
2021/08/09 07:02:04;;;;;;;2.00;1.10;;;;;;;;;;5054512;28;20411;-72
2021/08/09 07:04:30;;;;;;;1.37;1.17;;;;;;;;;;5054216;28;20462;-72
2021/08/09 07:06:56;;;;;;;1.40;1.30;;;;;;;;;;5053183;28;20430;-72
2021/08/09 07:09:22;;;;;;;1.53;1.17;;;;;;;;;;5052663;28;20940;-72
2021/08/09 07:11:48;;;;;;;1.07;0.97;;;;;;;;;;5054384;28;20437;-72
2021/08/09 07:14:18;;;;;;;4.53;1.30;;;;;;;;;;5054520;28;20426;-73
2021/08/09 07:16:44;;;;;;;2.17;1.67;;;;;;;;;;5054567;28;20423;-72
2021/08/09 07:19:11;;;;;;;1.60;1.37;;;;;;;;;;5054292;28;20854;-72
2021/08/09 07:21:37;;;;;;;1.50;1.30;;;;;;;;;;5054388;28;20443;-71
2021/08/09 07:24:04;;;;;;;1.20;1.10;;;;;;;;;;5054028;28;20443;-71
2021/08/09 07:29:33;;;;;;;4.17;1.10;;;;;;;;;;5054830;28;20418;-72
2021/08/09 07:31:59;;;;;;;2.03;1.80;;;;;;;;;;5055197;28;20415;-72
2021/08/09 07:34:25;;;;;;;2.20;1.50;;;;;;;;;;5053115;28;20422;-72
2021/08/09 07:36:51;;;;;;;2.20;1.20;;;;;;;;;;5053743;28;20427;-72
2021/08/09 07:39:17;;;;;;;5.90;1.00;;;;;;;;;;5053550;28;20411;-73
2021/08/09 07:44:47;;;;;;;1.40;1.30;;;;;;;;;;5053391;28;20551;-71
2021/08/09 07:47:13;;;;;;;1.67;1.20;;;;;;;;;;5053902;28;20906;-71
2021/08/09 07:49:39;;;;;;;2.67;1.30;;;;;;;;;;5053771;28;20425;-72
2021/08/09 07:52:05;;;;;;;1.10;1.00;;;;;;;;;;5053863;28;20442;-71
2021/08/09 07:54:31;;;;;;;4.00;1.20;;;;;;;;;;5052851;28;20429;-71
2021/08/09 08:00:01;;;;;;;1.30;1.07;;;;;;;;;;5053780;28;20499;-71
2021/08/09 08:02:27;;;;;;;4.33;1.50;;;;;;;;;;5053947;28;20419;-68
2021/08/09 08:04:53;;;;;;;1.37;1.00;;;;;;;;;;5053788;28;20474;-70
2021/08/09 08:07:19;;;;;;;1.93;1.33;;;;;;;;;;5053079;28;20601;-73
2021/08/09 08:09:45;;;;;;;1.83;1.00;;;;;;;;;;5053173;28;20423;-72
2021/08/09 08:15:19;;;;;;;0.93;0.80;;;;;;;;;;5052701;28;20405;-72
2021/08/09 08:17:45;;;;;;;1.13;0.90;;;;;;;;;;5053119;28;20415;-72
2021/08/09 08:20:12;;;;;;;0.70;0.70;;;;;;;;;;5053191;28;20878;-72
2021/08/09 08:22:38;;;;;;;3.20;1.20;;;;;;;;;;5053066;28;20419;-72
2021/08/09 08:25:04;;;;;;;1.00;0.60;;;;;;;;;;5052966;28;20559;-69
2021/08/09 08:30:34;;;;;;;1.10;1.00;;;;;;;;;;5052989;28;20409;-69
2021/08/09 08:33:00;;;;;;;1.30;0.83;;;;;;;;;;5052816;28;20424;-70
2021/08/09 08:35:26;;;;;;;2.30;1.23;;;;;;;;;;5050264;28;20497;-71
2021/08/09 08:37:53;;;;;;;2.90;1.47;;;;;;;;;;5051732;28;20450;-69
2021/08/09 08:46:08;;;;;;;2.37;1.10;;;;;;;;;;5052623;28;21042;-72
2021/08/09 08:48:34;;;;;;;1.80;1.27;;;;;;;;;;5051445;28;20424;-72
2021/08/09 08:51:01;;;;;;;2.30;0.90;;;;;;;;;;5052763;28;20431;-73
2021/08/09 08:53:28;;;;;;;2.37;1.17;;;;;;;;;;5052597;28;20419;-72
2021/08/09 08:55:55;;;;;;;2.13;0.93;;;;;;;;;;5052595;28;20457;-73
2021/08/09 08:58:21;;;;;;;1.23;0.70;;;;;;;;;;5052833;28;20442;-72
2021/08/09 09:00:48;;;;;;;1.27;0.80;;;;;;;;;;5052337;28;20430;-72
2021/08/09 09:03:16;;;;;;;1.53;1.07;;;;;;;;;;5052405;28;20426;-73
2021/08/09 09:05:55;;;;;;;1.10;0.73;;;;;;;;;;5052747;28;20474;-73
2021/08/09 09:08:36;;;;;;;1.07;0.70;;;;;;;;;;5052253;28;20415;-72
2021/08/09 09:11:02;;;;;;;1.53;0.87;;;;;;;;;;5056035;28;20419;-73
2021/08/09 09:13:28;;;;;;;1.73;0.80;;;;;;;;;;5052632;28;20817;-73
2021/08/09 09:16:00;;;;;;;3.13;0.90;;;;;;;;;;5052311;28;20412;-73
2021/08/09 09:18:27;;;;;;;1.80;1.37;;;;;;;;;;5052574;28;20438;-73
2021/08/09 09:20:54;;;;;;;0.77;0.50;;;;;;;;;;5049931;28;20415;-72
2021/08/09 09:23:22;;;;;;;2.67;0.80;;;;;;;;;;5051556;28;20423;-73
2021/08/09 09:25:49;;;;;;;0.67;0.63;;;;;;;;;;5051423;28;20459;-72
2021/08/09 09:28:22;;;;;;;3.57;0.80;;;;;;;;;;5051679;28;20426;-73
2021/08/09 09:30:48;;;;;;;2.40;0.63;;;;;;;;;;5051400;28;20464;-73
2021/08/09 09:33:15;;;;;;;2.00;1.00;;;;;;;;;;5051677;28;20494;-73
2021/08/09 09:35:41;;;;;;;5.33;1.57;;;;;;;;;;5049913;28;20474;-72
2021/08/09 09:38:07;;;;;;;1.50;0.90;;;;;;;;;;5050357;28;20427;-73
2021/08/09 09:40:39;;;;;;;2.60;0.80;;;;;;;;;;5051592;28;20441;-73
2021/08/09 09:46:21;;;;;;;0.97;0.67;;;;;;;;;;5051023;28;21012;-72
2021/08/09 09:48:47;;;;;;;2.77;1.13;;;;;;;;;;5051459;28;20411;-72
2021/08/09 09:51:17;;;;;;;1.33;0.93;;;;;;;;;;5051328;28;20403;-73
2021/08/09 09:53:44;;;;;;;2.10;1.20;;;;;;;;;;5050979;28;20612;-73
2021/08/09 09:56:10;;;;;;;3.33;0.77;;;;;;;;;;5049784;28;20430;-72
2021/08/09 09:58:37;;;;;;;1.10;1.00;;;;;;;;;;5050815;28;20498;-72
2021/08/09 10:01:06;;;;;;;1.70;0.87;;;;;;;;;;5051035;28;20410;-73
2021/08/09 10:03:36;;;;;;;1.20;0.90;;;;;;;;;;5051220;28;20881;-72
2021/08/09 10:06:03;;;;;;;2.60;1.10;;;;;;;;;;5050850;28;20463;-73
2021/08/09 10:08:32;;;;;;;1.20;1.10;;;;;;;;;;5050648;28;20408;-72
2021/08/09 10:11:00;;;;;;;1.33;1.07;;;;;;;;;;5051362;28;20423;-73
2021/08/09 10:16:31;;;;;;;1.20;1.03;;;;;;;;;;5051032;28;21000;-73
2021/08/09 10:18:57;;;;;;;1.40;1.30;;;;;;;;;;5050635;28;20901;-72
2021/08/09 10:21:29;;;;;;;3.50;0.97;;;;;;;;;;5049551;28;20474;-71
2021/08/09 10:23:54;;;;;;;1.27;0.90;;;;;;;;;;5049269;28;20446;-72
2021/08/09 10:26:33;;;;;;;1.57;0.93;;;;;;;;;;5050895;28;20431;-72
2021/08/09 10:29:06;;;;;;;1.50;1.17;;;;;;;;;;5050634;28;20438;-73
2021/08/09 10:31:34;;;;;;;1.67;1.33;;;;;;;;;;5050560;28;20459;-72
2021/08/09 10:34:01;;;;;;;1.20;1.10;;;;;;;;;;5047631;28;20415;-71
2021/08/09 10:36:27;;;;;;;2.37;1.00;;;;;;;;;;5049996;28;20532;-72
2021/08/09 10:38:55;;;;;;;1.13;0.77;;;;;;;;;;5050558;28;20421;-71
2021/08/09 10:47:46;;;;;;;3.40;1.40;;;;;;;;;;5050558;28;20919;-72
2021/08/09 10:50:24;;;;;;;1.37;0.70;;;;;;;;;;5050673;28;20793;-72
2021/08/09 10:52:50;;;;;;;1.23;1.00;;;;;;;;;;5050265;28;20454;-73
2021/08/09 10:55:41;;;;;;;4.03;1.17;;;;;;;;;;5050513;28;20413;-72
2021/08/09 10:58:07;;;;;;;2.27;1.03;;;;;;;;;;5050403;28;20766;-73
2021/08/09 11:00:39;;;;;;;2.10;1.40;;;;;;;;;;5050622;28;20498;-72
2021/08/09 11:03:06;;;;;;;1.67;0.90;;;;;;;;;;5050441;28;20882;-72
2021/08/09 11:05:32;;;;;;;1.57;1.20;;;;;;;;;;5050377;28;20462;-72
2021/08/09 11:08:16;;;;;;;2.70;1.10;;;;;;;;;;5050264;28;20460;-71
2021/08/09 11:11:01;;;;;;;2.07;1.40;;;;;;;;;;5047562;28;20449;-72
2021/08/09 11:13:36;;;;;;;1.40;1.10;;;;;;;;;;5050176;28;20494;-72
2021/08/09 11:16:04;;;;;;;2.20;1.10;;;;;;;;;;5050219;28;20410;-73
2021/08/09 11:18:30;;;;;;;1.40;1.00;;;;;;;;;;5050103;28;20901;-73
2021/08/09 11:21:03;;;;;;;2.20;1.57;;;;;;;;;;5050259;28;20407;-71
2021/08/09 11:23:37;;;;;;;2.87;1.17;;;;;;;;;;5050260;28;20415;-72
2021/08/09 11:26:03;;;;;;;4.73;1.43;;;;;;;;;;5047241;28;21052;-72
2021/08/09 11:28:29;;;;;;;1.20;1.10;;;;;;;;;;5050478;28;20427;-73
2021/08/09 11:31:00;;;;;;;3.10;1.40;;;;;;;;;;5048688;28;20434;-73
2021/08/09 11:33:39;;;;;;;3.03;0.77;;;;;;;;;;5050060;28;20932;-71
2021/08/09 11:36:08;;;;;;;1.30;1.20;;;;;;;;;;5049041;28;20952;-73
2021/08/09 11:38:44;;;;;;;1.23;1.13;;;;;;;;;;5049846;28;20415;-73
2021/08/09 11:41:11;;;;;;;1.43;1.00;;;;;;;;;;5048918;28;20947;-73
2021/08/09 11:43:38;;;;;;;1.80;1.40;;;;;;;;;;5050098;28;20878;-73
2021/08/09 11:46:09;;;;;;;1.93;1.60;;;;;;;;;;5053374;28;20814;-74
2021/08/09 11:48:36;;;;;;;1.53;1.00;;;;;;;;;;5053844;28;20415;-72
2021/08/09 11:51:09;;;;;;;2.70;1.37;;;;;;;;;;5053512;28;20890;-72
2021/08/09 11:53:37;;;;;;;2.50;1.33;;;;;;;;;;5053441;28;20407;-72
2021/08/09 11:56:10;;;;;;;1.90;1.30;;;;;;;;;;5053555;28;20446;-72
2021/08/09 11:58:37;;;;;;;1.67;1.17;;;;;;;;;;5053495;28;20418;-72
2021/08/09 12:01:03;;;;;;;1.50;0.93;;;;;;;;;;5053744;28;20422;-72
2021/08/09 12:03:29;;;;;;;0.93;0.80;;;;;;;;;;5053879;28;20411;-72
2021/08/09 12:05:57;;;;;;;2.20;1.20;;;;;;;;;;5051816;28;20565;-78
2021/08/09 12:08:24;;;;;;;2.20;1.13;;;;;;;;;;5053283;28;20894;-78
2021/08/09 12:10:50;;;;;;;1.47;0.97;;;;;;;;;;5053581;28;20775;-77
2021/08/09 12:13:24;;;;;;;1.77;1.33;;;;;;;;;;5053665;28;20867;-80
2021/08/09 12:16:19;;;;;;;1.07;0.97;;;;;;;;;;5053349;28;20415;-76
2021/08/09 12:18:52;;;;;;;1.50;1.30;;;;;;;;;;5044188;28;20443;-77
2021/08/09 12:21:18;;;;;;;1.30;1.00;;;;;;;;;;5052254;28;20423;-78
2021/08/09 12:23:57;;;;;;;1.20;1.00;;;;;;;;;;5053142;28;20407;-78
2021/08/09 12:26:23;;;;;;;2.07;1.00;;;;;;;;;;5053381;28;20479;-77
2021/08/09 12:28:51;;;;;;;1.47;1.33;;;;;;;;;;5053339;28;20407;-79
2021/08/09 12:31:30;;;;;;;3.53;1.20;;;;;;;;;;5053165;28;20573;-77
2021/08/09 12:34:08;;;;;;;1.13;0.90;;;;;;;;;;5053138;28;20411;-74
2021/08/09 12:36:35;;;;;;;1.53;1.10;;;;;;;;;;5052420;28;20470;-76
2021/08/09 12:39:03;;;;;;;1.03;0.93;;;;;;;;;;5052608;28;20439;-78
2021/08/09 12:41:30;;;;;;;2.63;1.13;;;;;;;;;;5053027;28;20411;-76
2021/08/09 12:43:56;;;;;;;3.83;1.30;;;;;;;;;;5052949;28;20423;-77
2021/08/09 12:46:22;;;;;;;1.30;1.20;;;;;;;;;;5052606;28;20442;-77
2021/08/09 12:48:51;;;;;;;3.80;1.10;;;;;;;;;;5052798;28;20932;-79
2021/08/09 12:51:18;;;;;;;2.53;1.20;;;;;;;;;;5052871;28;20423;-78
2021/08/09 12:53:44;;;;;;;1.17;1.07;;;;;;;;;;5052556;28;20444;-79
2021/08/09 12:56:10;;;;;;;2.43;1.27;;;;;;;;;;5052469;28;20514;-76
2021/08/09 12:58:37;;;;;;;1.70;1.27;;;;;;;;;;5051836;28;20412;-79
2021/08/09 13:01:03;;;;;;;2.20;1.33;;;;;;;;;;5052424;28;20774;-77
2021/08/09 13:03:29;;;;;;;2.03;1.30;;;;;;;;;;5051963;28;20497;-79
2021/08/09 13:05:56;;;;;;;1.63;1.10;;;;;;;;;;5052016;28;20570;-80
2021/08/09 13:08:22;;;;;;;2.10;1.60;;;;;;;;;;5051843;28;20490;-79
2021/08/09 13:10:48;;;;;;;1.80;1.40;;;;;;;;;;5049286;28;20423;-79
2021/08/09 13:13:14;;;;;;;2.83;1.23;;;;;;;;;;5051768;28;20422;-78
2021/08/09 13:15:40;;;;;;;6.57;1.67;;;;;;;;;;5051893;28;20772;-79
2021/08/09 13:18:06;;;;;;;2.00;1.40;;;;;;;;;;5051856;28;20790;-78
2021/08/09 13:20:33;;;;;;;1.73;1.07;;;;;;;;;;5051918;28;20503;-80
2021/08/09 13:23:00;;;;;;;3.53;1.30;;;;;;;;;;5051762;28;20443;-79
2021/08/09 13:25:26;;;;;;;1.90;1.13;;;;;;;;;;5051613;28;20513;-80
2021/08/09 13:27:52;;;;;;;3.07;1.70;;;;;;;;;;5050366;28;20415;-80
2021/08/09 13:33:22;;;;;;;2.33;1.30;;;;;;;;;;5051588;28;20417;-80
2021/08/09 13:35:48;;;;;;;3.83;1.33;;;;;;;;;;5051212;28;20459;-78
2021/08/09 13:38:14;;;;;;;1.30;1.07;;;;;;;;;;5051653;28;20779;-80
2021/08/09 13:40:40;;;;;;;1.70;1.10;;;;;;;;;;5051699;28;20426;-77
2021/08/09 13:43:06;;;;;;;2.70;1.70;;;;;;;;;;5051351;28;20988;-79
2021/08/09 13:48:37;;;;;;;1.60;1.17;;;;;;;;;;5051264;28;20456;-77
2021/08/09 13:51:04;;;;;;;1.73;1.00;;;;;;;;;;5050761;28;20411;-76
2021/08/09 13:53:30;;;;;;;1.73;1.30;;;;;;;;;;5051310;28;20419;-77
2021/08/09 13:55:56;;;;;;;1.60;1.23;;;;;;;;;;5050264;28;20442;-76
2021/08/09 13:58:22;;;;;;;3.23;1.57;;;;;;;;;;5051197;28;20415;-76
2021/08/09 14:03:52;;;;;;;1.70;1.33;;;;;;;;;;5050900;28;20452;-76
2021/08/09 14:06:17;;;;;;;1.77;1.60;;;;;;;;;;5051179;28;20569;-77
2021/08/09 14:08:43;;;;;;;4.10;1.43;;;;;;;;;;5050221;28;20878;-77
2021/08/09 14:11:09;;;;;;;1.60;1.40;;;;;;;;;;5050866;28;20426;-77
2021/08/09 14:13:35;;;;;;;2.00;1.37;;;;;;;;;;5048261;28;20494;-77
2021/08/09 14:19:05;;;;;;;2.17;1.50;;;;;;;;;;5050675;28;20928;-76
2021/08/09 14:21:32;;;;;;;2.30;1.37;;;;;;;;;;5051873;28;20416;-77
2021/08/09 14:23:58;;;;;;;2.80;1.50;;;;;;;;;;5051868;28;20415;-75
2021/08/09 14:26:24;;;;;;;1.73;1.20;;;;;;;;;;5051667;28;20426;-77
2021/08/09 14:28:50;;;;;;;2.30;1.73;;;;;;;;;;5051697;28;20409;-77
2021/08/09 14:34:19;;;;;;;0.90;0.90;;;;;;;;;;5051566;28;20496;-76
2021/08/09 14:36:45;;;;;;;1.33;1.23;;;;;;;;;;5051499;28;20419;-77
2021/08/09 14:39:12;;;;;;;2.00;1.70;;;;;;;;;;5051578;28;20553;-75
2021/08/09 14:41:38;;;;;;;2.73;1.20;;;;;;;;;;5051767;28;20876;-76
2021/08/09 14:49:52;;;;;;;4.30;1.70;;;;;;;;;;5051868;28;20456;-75
2021/08/09 14:52:18;;;;;;;2.87;1.77;;;;;;;;;;5051579;28;20399;-74
2021/08/09 14:54:44;;;;;;;3.10;1.20;;;;;;;;;;5050125;28;20414;-77
2021/08/09 14:57:10;;;;;;;1.60;1.50;;;;;;;;;;5049543;28;20465;-81
2021/08/09 14:59:36;;;;;;;3.13;1.10;;;;;;;;;;5050540;28;20414;-83
2021/08/09 15:02:02;;;;;;;2.03;1.57;;;;;;;;;;5050343;28;20407;-83
2021/08/09 15:04:28;;;;;;;1.70;0.93;;;;;;;;;;5050218;28;20450;-84
2021/08/09 15:06:54;;;;;;;2.47;1.30;;;;;;;;;;5050757;28;20925;-82
2021/08/09 15:09:20;;;;;;;2.40;1.63;;;;;;;;;;5051095;28;20410;-85
2021/08/09 15:11:46;;;;;;;1.73;1.60;;;;;;;;;;5050938;28;20960;-83
2021/08/09 15:14:12;;;;;;;3.93;1.83;;;;;;;;;;5050837;28;20416;-81
2021/08/09 15:19:42;;;;;;;3.00;2.63;;;;;;;;;;5051934;28;21000;-83
2021/08/09 15:22:09;;;;;;;1.90;1.27;;;;;;;;;;5054516;28;20399;-82
2021/08/09 15:24:35;;;;;;;4.00;1.67;;;;;;;;;;5054229;28;20458;-83
2021/08/09 15:27:01;;;;;;;1.90;1.40;;;;;;;;;;5054285;28;20426;-84
2021/08/09 15:29:27;;;;;;;1.67;1.40;;;;;;;;;;5054718;28;20886;-85
2021/08/09 15:35:02;;;;;;;1.23;1.10;;;;;;;;;;5054370;28;20524;-84
2021/08/09 15:37:28;;;;;;;1.60;1.40;;;;;;;;;;5054190;28;20878;-85
2021/08/09 15:39:54;;;;;;;2.87;1.50;;;;;;;;;;5054560;28;20820;-80
2021/08/09 15:42:20;;;;;;;3.00;1.03;;;;;;;;;;5054581;28;20453;-84
2021/08/09 15:44:46;;;;;;;2.20;1.53;;;;;;;;;;5054646;28;20696;-82
2021/08/09 15:47:12;;;;;;;2.87;1.50;;;;;;;;;;5054682;28;20415;-84
2021/08/09 15:49:41;;;;;;;1.20;1.10;;;;;;;;;;5054562;28;20436;-83
2021/08/09 15:52:09;;;;;;;2.30;1.50;;;;;;;;;;5054763;28;20787;-82
2021/08/09 15:54:35;;;;;;;2.23;1.50;;;;;;;;;;5054862;28;20408;-74
2021/08/09 15:57:01;;;;;;;2.80;1.37;;;;;;;;;;5054795;28;20419;-85
2021/08/09 15:59:30;;;;;;;1.60;1.50;;;;;;;;;;5054211;28;20418;-82
2021/08/09 16:04:59;;;;;;;1.73;1.37;;;;;;;;;;5053943;28;20457;-85
2021/08/09 16:07:25;;;;;;;2.30;1.20;;;;;;;;;;5054467;28;20423;-83
2021/08/09 16:09:51;;;;;;;2.43;1.40;;;;;;;;;;5054268;28;20412;-84
2021/08/09 16:12:17;;;;;;;4.13;1.50;;;;;;;;;;5051851;28;20523;-85
2021/08/09 16:14:43;;;;;;;3.33;2.47;;;;;;;;;;5054364;28;20407;-84
2021/08/09 16:20:14;;;;;;;2.67;1.50;;;;;;;;;;5053726;28;20436;-85
2021/08/09 16:22:40;;;;;;;2.50;1.23;;;;;;;;;;5053924;28;20414;-85
2021/08/09 16:25:06;;;;;;;1.80;1.40;;;;;;;;;;5054104;28;20471;-86
2021/08/09 16:27:32;;;;;;;2.63;1.40;;;;;;;;;;5066316;28;20498;-86
2021/08/09 16:30:04;;;;;;;2.00;1.40;;;;;;;;;;5059774;28;20427;-83
2021/08/09 16:35:33;;;;;;;1.63;1.27;;;;;;;;;;5053126;28;20612;-84
2021/08/09 16:37:59;;;;;;;3.20;1.50;;;;;;;;;;5053353;28;20482;-81
2021/08/09 16:40:25;;;;;;;2.20;1.30;;;;;;;;;;5052237;28;20427;-82
2021/08/09 16:42:53;;;;;;;1.60;1.20;;;;;;;;;;5054428;28;20431;-85
2021/08/09 16:45:19;;;;;;;1.60;1.50;;;;;;;;;;5051844;28;20471;-83
2021/08/09 16:47:45;;;;;;;1.90;1.50;;;;;;;;;;5054470;28;20451;-84
2021/08/09 16:50:11;;;;;;;2.53;1.20;;;;;;;;;;5054301;28;20782;-84
2021/08/09 16:52:37;;;;;;;1.63;1.50;;;;;;;;;;5054207;28;20733;-81
2021/08/09 16:55:03;;;;;;;2.63;1.67;;;;;;;;;;5054252;28;20465;-85
2021/08/09 16:57:33;;;;;;;1.63;1.53;;;;;;;;;;5052821;28;20466;-84
2021/08/09 16:59:59;;;;;;;3.63;1.53;;;;;;;;;;5053878;28;20447;-86
2021/08/09 17:05:28;;;;;;;4.13;1.50;;;;;;;;;;5054134;28;20466;-83